Ship Bottom Boro, New Jersey
Current Conditions -  °F | °C
As of 9:15 AM on Monday 24 Nov 2014 (Local Time) from KMJX Reporting Station
Overcast Overcast  
Wind Chill: 64°   Ceiling: 800
Heat Index: 64°   Visibility: 10mi
Dew Point: 63°   Wind: 10mph
Humidity: 94%   Direction: 200°SSW
Pressure: 29.71"   Gusts: 21mph
Location:  39.623°N, 74.1974°W
Report Text: KMJX 241415Z AUTO 20009G18KT 10SM OVC008 18/17 A2971 RMK AO1
Loading
Personal Weather Stations






























Interactive Weather Map New forecast layout! Learn more

10-Day Weather Forecast

Advertisements
Track Severe Weather on mobile